ロサンゼルス の空港の天気 - METARとTAF

ロサンゼルス国際空港 ( KLAX / LAX ) - アメリカ カリフォルニア州ロサンゼルス
飛行場実況気象(Metar)
観測時間06/24 02:53 PDT (06/24 09:53 UTC)
風向・風速北西 2m/s
視程6450m
天気現象もや
全天を覆う雲 鉛直視程 120m
気温16.1℃
湿度97%
気圧1013.1hPa
METARKLAX 240953Z 32004KT 4SM BR VV004 16/16 A2993 RMK AO2 RAB05E15 SLP131 VIS NW 2 1/2 P0000 T01610156 $
過去の天気等 Google飛行場航空写真 Wunderground天気予報

過去48時間のMETAR

飛行場予報(TAF)
発表時間: 6/24 02:00 PDT (6/24 09:00 UTC)
予報対象時間: 24日2時 PDT ~ 25日5時 PDT
風向・風速西 4m/s
視程6440m
天気現象もや
全天を覆う雲 雲底高度 120m
24日3時 PDT から
風向・風速不定 2m/s
視程10km以上
天気現象もや
全天を覆う雲 雲底高度 150m
24日8時 PDT から
風向・風速不定 2m/s
視程10km以上
全天を覆う雲 雲底高度 240m
24日11時 PDT から
風向・風速西 6m/s
視程10km以上
全天の8割程度の雲 雲底高度 370m
24日21時 PDT から
風向・風速西 3m/s
視程10km以上
全天を覆う雲 雲底高度 240m
25日1時 PDT から
風向・風速不定 2m/s
視程10km以上
天気現象もや
全天を覆う雲 雲底高度 180m
KLAX 240900Z 2409/2512 27008KT 4SM BR OVC004
FM241000 VRB03KT 6SM BR OVC005
FM241500 VRB03KT P6SM OVC008
FM241800 26012KT P6SM BKN012
FM250400 26006KT P6SM OVC008
FM250800 VRB03KT 6SM BR OVC006